Terminal Aerodrome Forecast
Issued by NWS Albuquerque, NM

Current Version | Previous Version | Text Only | Print | Product List | Glossary On
Versions: 1 2 3 4 5 6 7 8 9 10 11 12 13 14 15
942
FTUS45 KABQ 231907 AAA
TAFABQ
TAF AMD
KABQ 231907Z 2319/2418 34015G23KT P6SM FEW250
     FM240100 01011KT P6SM FEW250
     FM240400 08020G30KT P6SM FEW250
     FM241200 09013KT P6SM FEW250=

USA.gov is the U.S. government's official web portal to all federal, state and local government web resources and services.